Time;durP1;ratioP1;P1;durP2;ratioP2;P2;SDS_P1;SDS_P2;PMS_P1;PMS_P2;Temp;Humidity;BMP_temperature;BMP_pressure;BME280_temperature;BME280_humidity;BME280_pressure;Samples;Min_cycle;Max_cycle;Signal;HPM_P1;HPM_P2
2022/04/02 00:01:07;;;;;;;4.97;2.13;;;;;;;16.95;43.70;101203.69;4931808;29;20048;-72
2022/04/02 00:03:36;;;;;;;3.38;2.17;;;;;;;16.86;42.90;101196.63;4931807;29;20048;-74
2022/04/02 00:06:04;;;;;;;5.75;2.55;;;;;;;16.75;42.75;101198.22;4931924;29;20086;-74
2022/04/02 00:08:34;;;;;;;2.08;1.55;;;;;;;16.74;43.05;101202.56;4931712;29;20051;-74
2022/04/02 00:11:02;;;;;;;4.07;1.77;;;;;;;16.73;43.36;101199.94;4931297;28;20524;-73
2022/04/02 00:13:33;;;;;;;6.07;1.83;;;;;;;16.70;42.94;101197.28;4931466;29;20060;-73
2022/04/02 00:16:03;;;;;;;3.25;1.58;;;;;;;16.66;44.00;101190.25;4932002;29;20534;-73
2022/04/02 00:18:31;;;;;;;4.57;1.75;;;;;;;16.55;41.87;101191.00;4931671;29;20079;-74
2022/04/02 00:21:00;;;;;;;5.60;1.70;;;;;;;16.51;42.74;101194.44;4932057;29;20044;-74
2022/04/02 00:23:39;;;;;;;5.28;1.75;;;;;;;16.45;42.67;101198.72;4933098;29;20127;-73
2022/04/02 00:26:09;;;;;;;3.90;1.65;;;;;;;16.46;43.72;101206.56;4933063;29;20054;-73
2022/04/02 00:28:45;;;;;;;6.03;2.00;;;;;;;16.45;43.00;101197.00;4932252;29;20052;-74
2022/04/02 00:31:16;;;;;;;3.22;1.80;;;;;;;16.42;43.33;101196.94;4931478;29;20103;-74
2022/04/02 00:33:45;;;;;;;4.10;2.17;;;;;;;16.42;43.06;101207.38;4931391;29;20055;-75
2022/04/02 00:36:15;;;;;;;5.00;3.05;;;;;;;16.37;43.11;101203.84;4931251;29;20052;-75
2022/04/02 00:38:44;;;;;;;5.65;2.10;;;;;;;16.30;42.81;101197.66;4931908;29;20055;-74
2022/04/02 00:41:13;;;;;;;4.13;1.92;;;;;;;16.24;43.55;101200.22;4931602;29;20505;-74
2022/04/02 00:43:55;;;;;;;4.90;2.08;;;;;;;16.19;44.96;101207.06;4930947;29;20055;-75
2022/04/02 00:46:25;;;;;;;5.88;2.30;;;;;;;16.06;45.37;101216.50;4929829;29;20510;-75
2022/04/02 00:48:54;;;;;;;7.25;2.10;;;;;;;15.96;46.79;101222.41;4931725;29;20056;-73
2022/04/02 00:51:23;;;;;;;4.13;1.90;;;;;;;15.84;49.09;101236.16;4931215;29;20119;-73
2022/04/02 00:53:53;;;;;;;3.00;1.40;;;;;;;15.67;49.92;101232.38;4930675;29;20565;-75
2022/04/02 00:56:23;;;;;;;5.50;1.40;;;;;;;15.38;50.12;101224.06;4930688;29;20044;-72
2022/04/02 00:58:52;;;;;;;7.30;1.65;;;;;;;15.24;52.64;101237.72;4931059;29;20050;-74
2022/04/02 01:01:20;;;;;;;2.75;1.60;;;;;;;15.05;54.48;101240.88;4931105;29;20051;-75
2022/04/02 01:03:50;;;;;;;5.93;1.60;;;;;;;14.88;54.79;101233.56;4931004;29;20052;-73
2022/04/02 01:06:19;;;;;;;6.47;1.88;;;;;;;14.78;56.97;101236.88;4931461;29;20452;-76
2022/04/02 01:08:48;;;;;;;4.93;1.60;;;;;;;14.69;56.79;101241.88;4931192;29;20110;-73
2022/04/02 01:11:17;;;;;;;5.88;1.73;;;;;;;14.67;59.26;101254.00;4930227;28;20067;-72
2022/04/02 01:13:46;;;;;;;5.07;1.52;;;;;;;14.64;58.88;101264.38;4931093;29;20501;-72
2022/04/02 01:16:14;;;;;;;3.25;1.23;;;;;;;14.59;58.80;101276.38;4931283;29;20095;-71
2022/04/02 01:18:43;;;;;;;3.35;1.08;;;;;;;14.45;58.05;101278.66;4935020;29;20079;-72
2022/04/02 01:21:13;;;;;;;3.22;1.42;;;;;;;14.31;59.99;101280.09;4931655;29;20048;-72
2022/04/02 01:23:43;;;;;;;1.52;0.80;;;;;;;14.14;59.36;101274.50;4931196;29;20051;-72
2022/04/02 01:26:11;;;;;;;4.30;1.02;;;;;;;14.04;59.03;101287.31;4930608;29;20103;-74
2022/04/02 01:28:40;;;;;;;3.38;0.90;;;;;;;13.99;60.25;101286.28;4931071;29;20147;-72
2022/04/02 01:31:10;;;;;;;3.58;1.05;;;;;;;13.93;59.42;101288.75;4930879;29;20044;-74
2022/04/02 01:33:38;;;;;;;2.83;1.00;;;;;;;13.86;58.62;101281.66;4930641;29;20232;-73
2022/04/02 01:36:07;;;;;;;5.15;1.38;;;;;;;13.77;59.24;101292.72;4930499;29;20779;-75
2022/04/02 01:38:36;;;;;;;2.47;1.30;;;;;;;13.69;59.00;101282.94;4928951;29;20490;-73
2022/04/02 01:41:06;;;;;;;5.53;1.38;;;;;;;13.60;59.70;101281.00;4929609;29;20153;-73
2022/04/02 01:43:34;;;;;;;2.05;1.10;;;;;;;13.55;59.36;101286.06;4928893;29;20051;-73
2022/04/02 01:46:04;;;;;;;1.90;1.00;;;;;;;13.44;60.62;101292.72;4928862;29;20051;-75
2022/04/02 01:48:33;;;;;;;3.78;1.30;;;;;;;13.38;60.55;101298.63;4929035;29;20050;-73
2022/04/02 01:51:02;;;;;;;5.75;1.33;;;;;;;13.23;62.21;101284.31;4929051;29;20052;-73
2022/04/02 01:53:31;;;;;;;3.90;1.02;;;;;;;13.26;62.82;101302.56;4929618;29;20051;-73
2022/04/02 01:56:00;;;;;;;4.82;1.08;;;;;;;13.19;64.08;101302.44;4929639;29;20090;-74
2022/04/02 01:58:30;;;;;;;3.35;1.02;;;;;;;13.15;64.04;101299.72;4930302;29;20048;-74
2022/04/02 02:00:59;;;;;;;2.45;1.13;;;;;;;13.11;64.52;101308.25;4930171;29;20099;-74
2022/04/02 02:03:27;;;;;;;3.28;1.73;;;;;;;13.11;65.04;101308.25;4930379;29;20051;-74
2022/04/02 02:05:56;;;;;;;2.33;1.02;;;;;;;13.08;66.00;101303.84;4933752;29;20059;-74
2022/04/02 02:08:24;;;;;;;3.95;1.30;;;;;;;13.03;66.73;101305.41;4933883;29;20683;-73
2022/04/02 02:10:53;;;;;;;5.20;1.02;;;;;;;13.00;67.22;101307.94;4933790;28;20095;-72
2022/04/02 02:13:28;;;;;;;1.77;1.20;;;;;;;12.98;68.45;101307.88;4935455;29;20107;-73
2022/04/02 02:15:58;;;;;;;3.45;1.38;;;;;;;12.94;67.70;101305.16;4935592;29;20062;-71
2022/04/02 02:18:26;;;;;;;3.22;0.95;;;;;;;12.91;68.34;101307.69;4934047;29;20056;-72
2022/04/02 02:20:55;;;;;;;1.98;1.00;;;;;;;12.82;67.23;101302.22;4933639;29;20514;-72
2022/04/02 02:23:23;;;;;;;3.85;1.20;;;;;;;12.73;68.73;101300.22;4933710;29;20486;-71
2022/04/02 02:25:52;;;;;;;2.47;1.40;;;;;;;12.66;70.97;101295.69;4933685;29;20126;-70
2022/04/02 02:28:21;;;;;;;3.58;1.30;;;;;;;12.61;72.63;101300.75;4933528;29;20111;-72
2022/04/02 02:30:49;;;;;;;3.45;1.23;;;;;;;12.56;72.59;101297.13;4933622;29;20154;-71
2022/04/02 02:36:05;;;;;;;3.15;1.08;;;;;;;12.38;72.68;101288.78;4933706;29;20067;-70
2022/04/02 02:38:33;;;;;;;3.13;1.08;;;;;;;12.30;73.33;101294.63;4933836;29;20071;-70
2022/04/02 02:41:03;;;;;;;1.98;0.88;;;;;;;12.22;73.41;101296.09;4933456;29;20055;-71
2022/04/02 02:43:31;;;;;;;4.28;1.10;;;;;;;12.14;76.53;101297.59;4932992;29;20107;-72
2022/04/02 02:46:00;;;;;;;3.42;1.52;;;;;;;12.06;77.66;101293.84;4933200;29;20094;-72
2022/04/02 02:48:30;;;;;;;2.42;1.08;;;;;;;12.00;78.32;101288.47;4933035;29;20051;-72
2022/04/02 02:50:58;;;;;;;2.50;1.20;;;;;;;11.90;78.08;101282.97;4932680;29;20043;-72
2022/04/02 02:53:52;;;;;;;2.78;1.42;;;;;;;11.89;79.03;101290.72;4932634;29;20048;-70
2022/04/02 02:56:20;;;;;;;2.28;1.20;;;;;;;11.88;79.08;101287.22;4932464;29;20533;-72
2022/04/02 02:58:49;;;;;;;4.78;1.63;;;;;;;11.85;80.51;101281.91;4932651;29;20051;-73
2022/04/02 03:01:17;;;;;;;3.13;1.45;;;;;;;11.80;82.08;101280.91;4932849;29;20158;-72
2022/04/02 03:03:48;;;;;;;3.80;1.52;;;;;;;11.64;83.59;101268.25;4932782;29;20052;-72
2022/04/02 03:06:16;;;;;;;6.78;1.50;;;;;;;11.67;86.06;101295.16;4932537;29;20136;-73
2022/04/02 03:08:45;;;;;;;4.68;1.60;;;;;;;11.61;87.60;101300.13;4933936;29;20048;-72
2022/04/02 03:11:13;;;;;;;1.65;1.13;;;;;;;11.53;87.84;101302.47;4935638;28;20055;-72
2022/04/02 03:13:42;;;;;;;2.78;1.10;;;;;;;11.47;91.96;101307.41;4933085;29;20081;-73
2022/04/02 03:16:10;;;;;;;1.90;1.00;;;;;;;11.42;95.02;101311.56;4930436;29;20056;-72
2022/04/02 03:18:39;;;;;;;5.45;1.40;;;;;;;11.40;100.00;101310.63;4933276;29;20157;-72
2022/04/02 03:21:09;;;;;;;3.33;1.40;;;;;;;11.25;100.00;101290.25;4933199;29;20147;-70
2022/04/02 03:23:38;;;;;;;4.25;1.67;;;;;;;11.26;100.00;101311.88;4932248;29;20521;-72
2022/04/02 03:26:06;;;;;;;4.80;1.63;;;;;;;11.20;100.00;101316.81;4932454;29;20111;-72
2022/04/02 03:28:35;;;;;;;1.83;1.30;;;;;;;11.17;100.00;101316.72;4932995;29;20055;-71
2022/04/02 03:31:06;;;;;;;2.78;1.55;;;;;;;11.08;100.00;101310.38;4932609;29;20048;-79
2022/04/02 03:33:35;;;;;;;4.68;1.30;;;;;;;11.19;100.00;101330.59;4932363;29;20083;-72
2022/04/02 03:36:04;;;;;;;3.05;1.20;;;;;;;11.14;100.00;101308.84;4932423;29;20051;-73
2022/04/02 03:38:34;;;;;;;1.63;1.17;;;;;;;11.15;100.00;101310.59;4932864;29;20051;-73
2022/04/02 03:41:04;;;;;;;2.88;0.80;;;;;;;11.07;100.00;101311.19;4932754;29;20048;-73
2022/04/02 03:43:33;;;;;;;2.70;1.13;;;;;;;11.06;100.00;101314.63;4931563;29;20512;-72
2022/04/02 03:48:43;;;;;;;2.40;1.23;;;;;;;10.99;100.00;101315.22;4931065;29;20050;-73
2022/04/02 03:51:12;;;;;;;1.20;0.93;;;;;;;11.06;100.00;101335.34;4932208;29;20070;-71
2022/04/02 03:53:43;;;;;;;2.40;0.90;;;;;;;11.04;100.00;101337.00;4931520;29;20055;-72
2022/04/02 03:56:12;;;;;;;2.85;1.20;;;;;;;11.01;100.00;101336.88;4931169;29;20048;-72
2022/04/02 03:58:41;;;;;;;1.25;0.70;;;;;;;10.88;100.00;101326.88;4931318;29;20490;-73
2022/04/02 04:01:09;;;;;;;4.32;1.20;;;;;;;10.94;100.00;101327.09;4931723;29;20047;-72
2022/04/02 04:03:38;;;;;;;3.30;1.05;;;;;;;10.93;100.00;101327.94;4931739;29;20086;-71
2022/04/02 04:06:06;;;;;;;2.70;0.90;;;;;;;10.90;100.00;101338.16;4934495;29;20506;-71
2022/04/02 04:08:39;;;;;;;1.48;0.80;;;;;;;10.92;100.00;101349.47;4932383;29;20048;-71
2022/04/02 04:11:10;;;;;;;2.10;1.00;;;;;;;10.96;100.00;101353.94;4932602;28;20064;-73
2022/04/02 04:13:38;;;;;;;2.92;1.10;;;;;;;11.00;100.00;101373.09;4931558;29;20074;-73
2022/04/02 04:16:07;;;;;;;2.00;1.13;;;;;;;11.01;100.00;101370.53;4932029;29;20059;-71
2022/04/02 04:18:37;;;;;;;3.55;1.20;;;;;;;11.04;100.00;101368.06;4932078;29;20263;-72
2022/04/02 04:21:05;;;;;;;3.35;1.13;;;;;;;10.99;100.00;101371.31;4931993;29;20052;-72
2022/04/02 04:23:34;;;;;;;3.53;1.13;;;;;;;10.87;100.00;101361.38;4931265;29;20138;-75
2022/04/02 04:26:03;;;;;;;2.95;1.10;;;;;;;10.83;100.00;101373.31;4931545;29;20056;-72
2022/04/02 04:28:33;;;;;;;1.67;1.00;;;;;;;10.75;100.00;101376.44;4930865;29;20044;-72
2022/04/02 04:31:01;;;;;;;2.38;1.63;;;;;;;10.71;100.00;101384.91;4931967;29;20050;-73
2022/04/02 04:33:30;;;;;;;4.13;1.15;;;;;;;10.58;100.00;101381.84;4930756;29;20854;-72
2022/04/02 04:35:59;;;;;;;3.90;1.38;;;;;;;10.57;100.00;101382.66;4931272;29;20077;-72
2022/04/02 04:38:27;;;;;;;1.15;0.77;;;;;;;10.61;100.00;101371.59;4930992;29;20123;-73
2022/04/02 04:40:56;;;;;;;2.63;1.20;;;;;;;10.58;100.00;101376.69;4931403;29;20314;-72
2022/04/02 04:43:24;;;;;;;5.10;1.27;;;;;;;10.61;100.00;101392.31;4930634;29;20091;-72
2022/04/02 04:45:55;;;;;;;2.38;1.27;;;;;;;10.58;100.00;101381.84;4930779;29;20500;-71
2022/04/02 04:48:24;;;;;;;2.55;1.15;;;;;;;10.65;100.00;101389.03;4930421;29;20052;-73
2022/04/02 04:50:52;;;;;;;2.00;1.13;;;;;;;10.67;100.00;101384.78;4930809;29;20051;-71
2022/04/02 04:53:21;;;;;;;3.30;1.38;;;;;;;10.64;100.00;101386.38;4930514;29;20055;-71
2022/04/02 04:55:49;;;;;;;4.45;1.50;;;;;;;10.64;100.00;101392.41;4930546;29;20058;-72
2022/04/02 04:58:18;;;;;;;2.38;1.50;;;;;;;10.61;100.00;101394.91;4930776;29;20467;-73
2022/04/02 05:00:46;;;;;;;1.55;1.08;;;;;;;10.56;100.00;101388.66;4931271;29;20478;-72
2022/04/02 05:03:16;;;;;;;4.20;1.65;;;;;;;10.54;100.00;101385.13;4932308;29;20048;-71
2022/04/02 05:05:45;;;;;;;1.42;0.90;;;;;;;10.52;100.00;101391.06;4931039;29;20158;-70
2022/04/02 05:08:13;;;;;;;1.70;1.20;;;;;;;10.50;100.00;101398.75;4930667;29;20055;-70
2022/04/02 05:10:43;;;;;;;5.40;1.30;;;;;;;10.50;100.00;101398.75;4931375;28;20481;-71
2022/04/02 05:13:13;;;;;;;1.27;0.80;;;;;;;10.55;100.00;101409.28;4930537;29;20516;-70
2022/04/02 05:15:43;;;;;;;3.83;1.42;;;;;;;10.55;100.00;101407.59;4931442;29;20051;-70
2022/04/02 05:18:11;;;;;;;1.77;1.20;;;;;;;10.52;100.00;101407.47;4930711;29;20060;-70
2022/04/02 05:20:42;;;;;;;2.08;1.15;;;;;;;10.50;100.00;101414.28;4930986;29;20090;-70
2022/04/02 05:23:11;;;;;;;2.78;1.02;;;;;;;10.49;100.00;101417.72;4930424;29;20250;-69
2022/04/02 05:25:40;;;;;;;1.90;0.90;;;;;;;10.51;100.00;101422.94;4931216;29;20087;-70
2022/04/02 05:28:09;;;;;;;4.68;1.50;;;;;;;10.53;100.00;101429.91;4930825;29;20520;-69
2022/04/02 05:30:39;;;;;;;3.63;1.40;;;;;;;10.52;100.00;101429.88;4930775;29;20062;-70
2022/04/02 05:33:08;;;;;;;2.50;1.55;;;;;;;10.54;100.00;101430.84;4930929;29;20143;-70
2022/04/02 05:35:36;;;;;;;2.05;1.38;;;;;;;10.55;100.00;101441.22;4930927;29;20048;-70
2022/04/02 05:38:07;;;;;;;2.88;1.80;;;;;;;10.53;100.00;101431.63;4931035;29;20051;-70
2022/04/02 05:40:39;;;;;;;2.50;1.70;;;;;;;10.51;100.00;101434.16;4932907;29;20047;-69
2022/04/02 05:43:08;;;;;;;3.67;1.73;;;;;;;10.53;100.00;101435.09;4934014;29;20047;-69
2022/04/02 05:45:36;;;;;;;2.30;1.20;;;;;;;10.53;100.00;101434.22;4934282;29;20102;-70
2022/04/02 05:48:05;;;;;;;5.50;1.67;;;;;;;10.51;100.00;101436.72;4933839;29;20195;-70
2022/04/02 05:50:34;;;;;;;4.78;1.60;;;;;;;10.47;100.00;101434.88;4934367;29;20601;-69
2022/04/02 05:53:02;;;;;;;3.25;1.60;;;;;;;10.41;100.00;101434.63;4934077;29;20107;-68
2022/04/02 05:55:33;;;;;;;2.38;1.60;;;;;;;10.36;100.00;101428.38;4934157;29;20832;-69
2022/04/02 05:58:02;;;;;;;3.00;1.77;;;;;;;10.37;100.00;101433.59;4936177;29;20098;-67
2022/04/02 06:00:31;;;;;;;2.20;1.40;;;;;;;10.41;100.00;101442.38;4934092;29;20051;-69
2022/04/02 06:03:00;;;;;;;3.33;1.50;;;;;;;10.37;100.00;101440.47;4933888;29;20055;-67
2022/04/02 06:05:28;;;;;;;4.43;1.58;;;;;;;10.32;100.00;101444.59;4934156;29;20056;-69
2022/04/02 06:07:57;;;;;;;5.93;2.05;;;;;;;10.29;100.00;101452.22;4933939;29;20114;-69
2022/04/02 06:10:25;;;;;;;1.65;1.27;;;;;;;10.30;100.00;101452.25;4934232;28;20056;-69
2022/04/02 06:12:55;;;;;;;3.38;1.38;;;;;;;10.32;100.00;101460.09;4933968;29;20131;-69
2022/04/02 06:15:25;;;;;;;3.50;1.15;;;;;;;10.32;100.00;101462.69;4914444;29;20064;-69
2022/04/02 06:17:53;;;;;;;2.75;1.10;;;;;;;10.27;100.00;101465.94;4915307;29;20083;-68
2022/04/02 06:20:22;;;;;;;1.42;1.02;;;;;;;10.18;100.00;101462.06;4914877;29;20103;-68
2022/04/02 06:22:50;;;;;;;3.05;1.55;;;;;;;10.06;100.00;101465.91;4914253;29;20091;-68
2022/04/02 06:25:18;;;;;;;5.22;1.70;;;;;;;10.03;100.00;101468.38;4915273;29;20052;-68
2022/04/02 06:27:49;;;;;;;4.10;1.40;;;;;;;10.02;100.00;101466.59;4914971;29;20044;-69
2022/04/02 06:30:21;;;;;;;2.30;1.40;;;;;;;10.03;100.00;101477.81;4914651;29;20084;-69
2022/04/02 06:32:49;;;;;;;2.30;1.13;;;;;;;10.05;100.00;101478.75;4923029;29;20063;-68
2022/04/02 06:35:18;;;;;;;1.95;1.45;;;;;;;10.05;100.00;101474.47;4933099;29;20059;-68
2022/04/02 06:37:47;;;;;;;1.98;1.42;;;;;;;10.04;100.00;101471.84;4933461;29;20057;-68
2022/04/02 06:40:16;;;;;;;2.85;1.52;;;;;;;10.05;100.00;101465.81;4933583;29;20059;-69
2022/04/02 06:42:45;;;;;;;1.83;1.13;;;;;;;10.01;100.00;101474.25;4933520;29;20701;-69
2022/04/02 06:45:13;;;;;;;3.97;1.35;;;;;;;9.85;100.00;101467.56;4932454;29;20057;-69
2022/04/02 06:47:43;;;;;;;3.08;1.50;;;;;;;9.91;100.00;101485.91;4932964;29;20087;-69
2022/04/02 06:50:14;;;;;;;2.63;1.50;;;;;;;9.90;100.00;101493.63;4932784;29;20047;-69
2022/04/02 06:52:43;;;;;;;2.22;1.20;;;;;;;9.89;100.00;101486.66;4933517;29;20081;-69
2022/04/02 06:55:13;;;;;;;3.10;1.33;;;;;;;9.86;100.00;101496.06;4936268;29;20047;-70
2022/04/02 06:57:46;;;;;;;7.72;0.95;;;;;;;9.87;100.00;101496.94;4933648;29;20505;-69
2022/04/02 07:00:14;;;;;;;;;;;;;;;9.84;100.00;101489.91;4933855;29;20102;-69
2022/04/02 07:02:44;;;;;;;1.45;0.80;;;;;;;9.93;100.00;101509.25;4933028;29;19929;-70
2022/04/02 07:05:14;;;;;;;2.28;0.98;;;;;;;9.95;100.00;101507.63;4932507;29;20052;-70
2022/04/02 07:07:43;;;;;;;2.40;0.98;;;;;;;9.93;100.00;101504.97;4932920;29;20070;-70
2022/04/02 07:10:13;;;;;;;2.45;0.80;;;;;;;9.92;100.00;101512.63;4932177;29;20720;-70
2022/04/02 07:12:41;;;;;;;2.40;0.70;;;;;;;9.88;100.00;101509.06;4933793;28;20052;-69
2022/04/02 07:15:10;;;;;;;2.70;0.73;;;;;;;9.86;100.00;101521.91;4932704;29;20135;-69
2022/04/02 07:17:39;;;;;;;3.35;0.93;;;;;;;9.85;100.00;101514.09;4932805;29;20056;-70
2022/04/02 07:20:12;;;;;;;2.08;1.05;;;;;;;9.88;100.00;101523.69;4932932;29;20106;-70
2022/04/02 07:22:42;;;;;;;;;;;;;;;9.88;100.00;101528.84;4932788;29;20158;-69
2022/04/02 07:25:12;;;;;;;3.10;0.90;;;;;;;9.89;100.00;101530.59;4932440;29;19927;-69
2022/04/02 07:27:41;;;;;;;0.95;0.70;;;;;;;9.88;100.00;101523.69;4933014;29;20079;-69
2022/04/02 07:30:11;;;;;;;1.33;0.73;;;;;;;9.86;100.00;101531.34;4932562;29;20047;-69
2022/04/02 07:32:39;;;;;;;0.60;0.40;;;;;;;9.81;100.00;101528.56;4932361;29;20140;-70
2022/04/02 07:35:11;;;;;;;0.63;0.40;;;;;;;9.78;100.00;101533.63;4932224;29;20483;-71
2022/04/02 07:37:54;;;;;;;2.77;0.87;;;;;;;9.72;100.00;101537.63;4932455;29;20058;-69
2022/04/02 07:40:25;;;;;;;0.55;0.50;;;;;;;9.65;100.00;101546.78;4932123;29;20048;-70
2022/04/02 07:43:06;;;;;;;0.65;0.50;;;;;;;9.61;100.00;101550.91;4931931;29;20111;-70
2022/04/02 07:45:40;;;;;;;1.02;0.50;;;;;;;9.58;100.00;101560.25;4931520;29;20091;-69
2022/04/02 07:48:10;;;;;;;2.25;1.00;;;;;;;9.55;100.00;101557.50;4932053;29;20048;-71
2022/04/02 07:50:43;;;;;;;1.45;0.40;;;;;;;9.55;100.00;101570.41;4932571;29;20103;-70
2022/04/02 07:53:22;;;;;;;1.00;0.50;;;;;;;9.55;100.00;101571.31;4934482;29;20055;-69
2022/04/02 07:55:53;;;;;;;1.63;0.40;;;;;;;9.54;100.00;101563.50;4932648;29;20063;-70
2022/04/02 07:58:28;;;;;;;0.68;0.50;;;;;;;9.56;100.00;101556.69;4931587;29;20640;-69
2022/04/02 08:00:57;;;;;;;0.82;0.35;;;;;;;9.56;100.00;101569.63;4931787;29;20459;-70
2022/04/02 08:03:28;;;;;;;2.00;0.60;;;;;;;9.44;100.00;101557.91;4930713;29;20130;-71
2022/04/02 08:05:58;;;;;;;0.40;0.32;;;;;;;9.50;100.00;101584.81;4931981;29;20058;-69
2022/04/02 08:08:27;;;;;;;0.63;0.40;;;;;;;9.48;100.00;101579.56;4931603;29;20051;-69
2022/04/02 08:10:57;;;;;;;2.47;0.40;;;;;;;9.49;100.00;101585.66;4932265;28;20139;-71
2022/04/02 08:13:25;;;;;;;1.65;0.50;;;;;;;9.52;100.00;101588.38;4931083;29;20055;-69
2022/04/02 08:15:55;;;;;;;3.33;0.50;;;;;;;9.49;100.00;101585.66;4931573;29;20056;-69
2022/04/02 08:18:26;;;;;;;0.70;0.55;;;;;;;9.40;100.00;101591.25;4931926;29;20055;-71
2022/04/02 08:20:57;;;;;;;0.88;0.50;;;;;;;9.35;100.00;101603.06;4932185;29;20051;-70
2022/04/02 08:23:25;;;;;;;1.00;0.60;;;;;;;9.22;100.00;101596.41;4931500;29;20051;-70
2022/04/02 08:26:05;;;;;;;0.45;0.40;;;;;;;9.13;100.00;101598.56;4931331;29;20224;-70
2022/04/02 08:28:50;;;;;;;0.88;0.20;;;;;;;9.04;100.00;101600.69;4931379;29;20048;-70
2022/04/02 08:31:29;;;;;;;0.93;0.55;;;;;;;8.94;100.00;101595.06;4931416;29;20141;-70
2022/04/02 08:34:11;;;;;;;0.63;0.43;;;;;;;8.85;100.00;101594.63;4931534;29;20100;-70
2022/04/02 08:36:47;;;;;;;0.13;0.13;;;;;;;8.74;100.00;101596.66;4931402;29;20510;-70
2022/04/02 08:39:25;;;;;;;0.52;0.20;;;;;;;8.69;100.00;101602.41;4931527;29;20087;-69
2022/04/02 08:42:28;;;;;;;0.35;0.20;;;;;;;8.65;100.00;101613.38;4931579;29;20399;-70
2022/04/02 08:45:15;;;;;;;0.55;0.40;;;;;;;8.56;100.00;101609.50;4930952;29;20110;-69
2022/04/02 08:48:20;;;;;;;1.08;0.40;;;;;;;8.55;100.00;101619.75;4932135;29;20058;-71
2022/04/02 08:50:50;;;;;;;0.55;0.32;;;;;;;8.50;100.00;101619.53;4932627;29;20047;-69
2022/04/02 08:53:40;;;;;;;0.60;0.30;;;;;;;8.48;100.00;101626.28;4931605;29;20107;-70
2022/04/02 08:56:11;;;;;;;0.20;0.15;;;;;;;8.51;100.00;101634.19;4930713;29;20052;-69
2022/04/02 08:58:58;;;;;;;2.10;0.40;;;;;;;8.53;100.00;101631.69;4930742;29;20056;-70
2022/04/02 09:01:30;;;;;;;0.70;0.30;;;;;;;8.48;100.00;101636.59;4930920;29;20135;-70
2022/04/02 09:04:35;;;;;;;0.95;0.22;;;;;;;8.44;100.00;101641.53;4930635;29;20413;-70
2022/04/02 09:07:40;;;;;;;0.47;0.30;;;;;;;8.36;100.00;101639.41;4931418;29;20130;-69
2022/04/02 09:10:49;;;;;;;0.57;0.38;;;;;;;8.36;100.00;101649.72;4930859;29;20763;-70
2022/04/02 09:13:59;;;;;;;0.73;0.50;;;;;;;8.39;100.00;101651.56;4908296;29;20090;-68
2022/04/02 09:16:29;;;;;;;1.33;0.30;;;;;;;8.42;100.00;101659.50;4896952;29;20226;-69
2022/04/02 09:19:14;;;;;;;3.30;0.60;;;;;;;8.39;100.00;101654.16;4896996;29;20053;-70
2022/04/02 09:22:05;;;;;;;0.73;0.30;;;;;;;8.34;100.00;101656.47;4896738;29;20063;-69
2022/04/02 09:25:05;;;;;;;2.40;0.50;;;;;;;8.31;100.00;101658.00;4896761;29;20064;-69
2022/04/02 09:28:11;;;;;;;1.20;0.73;;;;;;;8.31;100.00;101655.41;4896845;29;20059;-70
2022/04/02 09:31:29;;;;;;;0.55;0.38;;;;;;;8.22;100.00;101670.41;4894754;29;20100;-69
2022/04/02 09:34:28;;;;;;;2.50;0.70;;;;;;;8.12;100.00;101674.19;4838366;29;20615;-68
2022/04/02 09:37:05;;;;;;;2.00;0.35;;;;;;;8.07;100.00;101670.47;4895962;29;20052;-70
2022/04/02 09:39:54;;;;;;;1.20;0.35;;;;;;;7.97;100.00;101674.22;4878079;29;20056;-69
2022/04/02 09:42:38;;;;;;;0.52;0.30;;;;;;;7.87;100.00;101677.09;4877669;29;20060;-68
2022/04/02 09:45:12;;;;;;;0.40;0.20;;;;;;;7.81;100.00;101674.19;4877386;29;20053;-69
2022/04/02 09:48:10;;;;;;;1.25;0.30;;;;;;;7.79;100.00;101681.84;4879566;29;20132;-69
2022/04/02 09:50:38;;;;;;;0.85;0.40;;;;;;;7.80;100.00;101687.88;4878290;29;20112;-69
2022/04/02 09:53:16;;;;;;;0.47;0.28;;;;;;;7.82;100.00;101688.88;4877246;29;20057;-69
2022/04/02 09:55:53;;;;;;;0.93;0.30;;;;;;;7.83;100.00;101700.94;4884354;29;20056;-69
2022/04/02 09:58:48;;;;;;;0.30;0.28;;;;;;;7.80;100.00;101699.06;4895704;29;20048;-68
2022/04/02 10:01:29;;;;;;;0.60;0.30;;;;;;;7.76;100.00;101704.84;4895172;29;20052;-69
2022/04/02 10:04:01;;;;;;;0.77;0.43;;;;;;;7.79;100.00;101714.44;4895992;29;20163;-69
2022/04/02 10:06:36;;;;;;;0.70;0.43;;;;;;;7.78;100.00;101715.25;4896407;29;20056;-68
2022/04/02 10:09:10;;;;;;;0.75;0.32;;;;;;;7.78;100.00;101718.69;4896284;29;20625;-69
2022/04/02 10:11:50;;;;;;;0.30;0.22;;;;;;;7.76;100.00;101720.31;4912202;28;20073;-70
2022/04/02 10:14:22;;;;;;;0.47;0.20;;;;;;;7.76;100.00;101739.25;4933847;29;20052;-69
2022/04/02 10:16:55;;;;;;;0.50;0.30;;;;;;;7.69;100.00;101739.69;4934236;29;20138;-69
2022/04/02 10:19:30;;;;;;;2.05;0.70;;;;;;;7.65;100.00;101740.31;4933975;29;20056;-69
2022/04/02 10:22:02;;;;;;;2.00;0.50;;;;;;;7.56;100.00;101737.22;4933983;29;20048;-69
2022/04/02 10:24:38;;;;;;;0.45;0.30;;;;;;;7.50;100.00;101745.47;4933475;29;20056;-69
2022/04/02 10:27:07;;;;;;;0.30;0.30;;;;;;;7.53;100.00;101743.06;4933214;29;20052;-69
2022/04/02 10:29:59;;;;;;;0.88;0.52;;;;;;;7.58;100.00;101745.91;4933402;29;20047;-69
2022/04/02 10:32:51;;;;;;;0.85;0.40;;;;;;;7.53;100.00;101747.34;4933100;29;20138;-68
2022/04/02 10:35:21;;;;;;;0.20;0.20;;;;;;;7.53;100.00;101752.47;4933374;29;20542;-68
2022/04/02 10:38:08;;;;;;;0.93;0.50;;;;;;;7.58;100.00;101758.78;4933075;29;20232;-69
2022/04/02 10:40:45;;;;;;;0.32;0.32;;;;;;;7.63;100.00;101757.38;4933662;29;20051;-69
2022/04/02 10:43:25;;;;;;;0.73;0.30;;;;;;;7.68;100.00;101763.69;4936019;29;20059;-69
2022/04/02 10:45:53;;;;;;;2.05;0.55;;;;;;;7.71;100.00;101762.97;4933645;29;20061;-69
2022/04/02 10:48:29;;;;;;;0.73;0.38;;;;;;;7.72;100.00;101759.59;4933394;29;20638;-70
2022/04/02 10:50:59;;;;;;;1.20;0.32;;;;;;;7.75;100.00;101760.66;4933636;29;20114;-68
2022/04/02 10:53:33;;;;;;;1.08;0.40;;;;;;;7.78;100.00;101765.09;4933117;29;20139;-68
2022/04/02 10:56:15;;;;;;;0.38;0.22;;;;;;;7.78;100.00;101759.03;4932736;29;20056;-68
2022/04/02 10:58:48;;;;;;;1.30;0.17;;;;;;;7.78;100.00;101765.09;4932845;29;20047;-69
2022/04/02 11:01:20;;;;;;;7.90;1.00;;;;;;;7.79;100.00;101765.97;4932778;29;20525;-69
2022/04/02 11:03:56;;;;;;;1.17;0.50;;;;;;;7.80;100.00;101763.47;4932562;29;20577;-70
2022/04/02 11:06:49;;;;;;;2.47;0.50;;;;;;;7.81;100.00;101766.94;4932903;29;20048;-68
2022/04/02 11:09:31;;;;;;;2.35;0.50;;;;;;;7.75;100.00;101758.06;4932152;29;20044;-68
2022/04/02 11:12:07;;;;;;;2.83;0.60;;;;;;;7.76;100.00;101761.53;4931479;28;20115;-69
2022/04/02 11:14:42;;;;;;;2.40;0.70;;;;;;;7.75;100.00;101760.66;4930339;29;20048;-69
2022/04/02 11:17:27;;;;;;;3.10;0.60;;;;;;;7.78;100.00;101765.09;4918166;29;20562;-69
2022/04/02 11:20:07;;;;;;;0.85;0.43;;;;;;;7.80;100.00;101757.44;4928179;29;20050;-69
2022/04/02 11:23:04;;;;;;;1.58;0.93;;;;;;;7.71;100.00;101745.81;4926094;29;20095;-68
2022/04/02 11:25:36;;;;;;;2.92;0.50;;;;;;;7.71;100.00;101747.50;4913474;29;20093;-69
2022/04/02 11:28:13;;;;;;;1.52;0.80;;;;;;;7.65;100.00;101763.50;4932174;29;20079;-69
2022/04/02 11:30:43;;;;;;;0.95;0.40;;;;;;;7.63;100.00;101762.53;4924211;29;20079;-69
2022/04/02 11:33:15;;;;;;;1.55;0.98;;;;;;;7.62;100.00;101760.75;4932611;29;20051;-69
2022/04/02 11:35:48;;;;;;;0.50;0.40;;;;;;;7.60;100.00;101771.75;4931994;29;20071;-70
2022/04/02 11:38:35;;;;;;;2.00;0.63;;;;;;;7.58;100.00;101774.22;4930972;29;20047;-69
2022/04/02 11:41:17;;;;;;;3.63;0.90;;;;;;;7.57;100.00;101780.19;4935843;29;20056;-69
2022/04/02 11:43:47;;;;;;;3.85;0.95;;;;;;;7.56;100.00;101793.88;4932500;29;20048;-69
2022/04/02 11:46:16;;;;;;;0.90;0.45;;;;;;;7.55;100.00;101792.97;4924538;29;20075;-69
2022/04/02 11:48:54;;;;;;;3.17;0.57;;;;;;;7.51;100.00;101784.97;4913368;29;20055;-69
2022/04/02 11:51:25;;;;;;;2.88;0.63;;;;;;;7.50;100.00;101796.09;4913695;29;20052;-69
2022/04/02 11:54:00;;;;;;;2.80;1.40;;;;;;;7.52;100.00;101799.66;4912905;29;20084;-68
2022/04/02 11:56:30;;;;;;;2.58;0.60;;;;;;;7.55;100.00;101784.38;4925443;29;20083;-69